Time;durP1;ratioP1;P1;durP2;ratioP2;P2;SDS_P1;SDS_P2;PMS_P1;PMS_P2;Temp;Humidity;BMP_temperature;BMP_pressure;BME280_temperature;BME280_humidity;BME280_pressure;Samples;Min_cycle;Max_cycle;Signal;HPM_P1;HPM_P2
2021/11/17 02:26:22;;;;;;;67.90;37.93;;;;;;;;;;4467094;32;20302;-53
2021/11/17 02:29:09;;;;;;;69.90;34.73;;;;;;;;;;4452274;32;20240;-52
2021/11/17 02:32:08;;;;;;;51.03;26.27;;;;;;;;;;4451847;32;20725;-52
2021/11/17 02:35:00;;;;;;;35.93;18.90;;;;;;;;;;4451548;32;20640;-52
2021/11/17 02:37:25;;;;;;;28.07;15.57;;;;;;;;;;4442669;32;20240;-53
2021/11/17 02:40:18;;;;;;;19.77;14.13;;;;;;;;;;4451448;32;20325;-52
2021/11/17 02:42:57;;;;;;;21.37;13.63;;;;;;;;;;4451070;32;20236;-52
2021/11/17 02:45:23;;;;;;;27.87;14.10;;;;;;;;;;4451433;32;20275;-52
2021/11/17 02:48:11;;;;;;;19.80;13.33;;;;;;;;;;4451401;32;20285;-52
2021/11/17 02:51:05;;;;;;;21.17;15.13;;;;;;;;;;4451601;32;20200;-53
2021/11/17 02:53:52;;;;;;;58.23;24.63;;;;;;;;;;4451309;32;20693;-52
2021/11/17 02:56:18;;;;;;;36.60;19.63;;;;;;;;;;4451516;32;20551;-52
2021/11/17 02:59:21;;;;;;;39.80;17.27;;;;;;;;;;4451823;32;20322;-53
2021/11/17 03:02:23;;;;;;;34.87;15.80;;;;;;;;;;4451153;32;20236;-52
2021/11/17 03:05:06;;;;;;;36.50;18.83;;;;;;;;;;4451329;32;20230;-52
2021/11/17 03:07:51;;;;;;;41.23;18.30;;;;;;;;;;4451560;32;20319;-52
2021/11/17 03:10:51;;;;;;;31.00;15.60;;;;;;;;;;4451420;32;20209;-55
2021/11/17 03:13:16;;;;;;;28.83;14.73;;;;;;;;;;4450951;32;20331;-54
2021/11/17 03:16:07;;;;;;;36.17;18.20;;;;;;;;;;4451362;32;20291;-53
2021/11/17 03:19:07;;;;;;;30.57;15.37;;;;;;;;;;4456738;32;20806;-54
2021/11/17 03:22:03;;;;;;;23.27;12.63;;;;;;;;;;4466325;32;20249;-52
2021/11/17 03:24:50;;;;;;;32.83;15.77;;;;;;;;;;4465264;32;20247;-54
2021/11/17 03:27:25;;;;;;;32.27;18.20;;;;;;;;;;4466094;32;20236;-54
2021/11/17 03:30:15;;;;;;;60.60;35.90;;;;;;;;;;4466394;32;20207;-54
2021/11/17 03:32:56;;;;;;;89.03;57.23;;;;;;;;;;4466195;32;20278;-53
2021/11/17 03:35:31;;;;;;;116.47;72.53;;;;;;;;;;4466166;32;20489;-53
2021/11/17 03:38:32;;;;;;;75.77;47.60;;;;;;;;;;4456870;32;20282;-54
2021/11/17 03:41:22;;;;;;;41.33;25.20;;;;;;;;;;4450787;32;20257;-53
2021/11/17 03:43:56;;;;;;;30.27;17.93;;;;;;;;;;4450518;32;20270;-53
2021/11/17 03:46:58;;;;;;;33.03;19.70;;;;;;;;;;4450564;32;20588;-54
2021/11/17 03:50:14;;;;;;;53.63;26.37;;;;;;;;;;4439903;32;20676;-53
2021/11/17 03:53:14;;;;;;;45.90;22.77;;;;;;;;;;4430508;32;20309;-53
2021/11/17 03:56:18;;;;;;;36.17;18.87;;;;;;;;;;4456313;32;20662;-53
2021/11/17 03:58:50;;;;;;;29.90;17.43;;;;;;;;;;4450284;32;20217;-52
2021/11/17 04:01:27;;;;;;;30.33;17.73;;;;;;;;;;4448951;32;20256;-53
2021/11/17 04:04:11;;;;;;;31.03;17.77;;;;;;;;;;4450535;32;20570;-52
2021/11/17 04:06:51;;;;;;;33.10;19.37;;;;;;;;;;4449915;32;20335;-53
2021/11/17 04:09:45;;;;;;;38.80;21.80;;;;;;;;;;4450431;32;20225;-54
2021/11/17 04:12:25;;;;;;;39.47;24.40;;;;;;;;;;4455718;32;20252;-54
2021/11/17 04:15:23;;;;;;;60.93;32.37;;;;;;;;;;4450193;32;20211;-52
2021/11/17 04:17:58;;;;;;;62.90;35.43;;;;;;;;;;4457104;32;20269;-53
2021/11/17 04:20:35;;;;;;;55.73;32.80;;;;;;;;;;4465488;32;20230;-52
2021/11/17 04:23:30;;;;;;;47.73;27.10;;;;;;;;;;4465042;32;20224;-52
2021/11/17 04:26:15;;;;;;;57.97;27.07;;;;;;;;;;4465637;32;20196;-52
2021/11/17 04:29:18;;;;;;;44.13;25.93;;;;;;;;;;4451154;32;20315;-52
2021/11/17 04:32:10;;;;;;;49.43;27.10;;;;;;;;;;4449436;32;20224;-53
2021/11/17 04:34:54;;;;;;;49.53;24.60;;;;;;;;;;4450007;32;20542;-53
2021/11/17 04:37:29;;;;;;;38.00;23.47;;;;;;;;;;4449780;32;20224;-53
2021/11/17 04:39:57;;;;;;;38.33;23.97;;;;;;;;;;4449478;32;20862;-52
2021/11/17 04:42:26;;;;;;;51.60;24.13;;;;;;;;;;4448840;32;20262;-54
2021/11/17 04:44:54;;;;;;;34.90;23.03;;;;;;;;;;4449146;32;20315;-53
2021/11/17 04:47:22;;;;;;;39.90;23.47;;;;;;;;;;4452490;32;20254;-53
2021/11/17 04:50:00;;;;;;;38.20;22.90;;;;;;;;;;4461264;32;20266;-54
2021/11/17 04:52:31;;;;;;;33.87;19.70;;;;;;;;;;4457968;32;20304;-53
2021/11/17 04:54:57;;;;;;;38.47;20.07;;;;;;;;;;4448858;32;20269;-54
2021/11/17 04:57:44;;;;;;;31.73;17.60;;;;;;;;;;4453671;32;20656;-54
2021/11/17 05:00:18;;;;;;;30.97;18.77;;;;;;;;;;4463973;32;20185;-55
2021/11/17 05:02:56;;;;;;;45.27;24.50;;;;;;;;;;4456367;32;20727;-53
2021/11/17 05:05:49;;;;;;;63.70;26.03;;;;;;;;;;4448313;32;20275;-54
2021/11/17 05:08:20;;;;;;;58.67;28.00;;;;;;;;;;4447809;32;20306;-55
2021/11/17 05:11:24;;;;;;;53.77;25.40;;;;;;;;;;4462110;32;20835;-54
2021/11/17 05:14:14;;;;;;;47.40;24.63;;;;;;;;;;4464177;32;20252;-55
2021/11/17 05:16:59;;;;;;;40.83;24.37;;;;;;;;;;4462520;32;20300;-55
2021/11/17 05:19:30;;;;;;;50.83;27.10;;;;;;;;;;4463432;32;20199;-54
2021/11/17 05:21:58;;;;;;;45.00;23.57;;;;;;;;;;4463894;32;20224;-54
2021/11/17 05:24:36;;;;;;;45.10;23.67;;;;;;;;;;4461781;32;20382;-53
2021/11/17 05:27:19;;;;;;;42.87;22.57;;;;;;;;;;4462030;32;20785;-54
2021/11/17 05:29:47;;;;;;;32.83;20.80;;;;;;;;;;4463240;32;20267;-55
2021/11/17 05:32:31;;;;;;;32.33;19.63;;;;;;;;;;4463557;32;20281;-55
2021/11/17 05:35:21;;;;;;;39.13;22.33;;;;;;;;;;4462668;32;20221;-54
2021/11/17 05:38:17;;;;;;;35.33;19.33;;;;;;;;;;4462074;32;20288;-54
2021/11/17 05:41:07;;;;;;;23.97;12.73;;;;;;;;;;4462381;32;20200;-53
2021/11/17 05:43:42;;;;;;;34.23;20.27;;;;;;;;;;4461833;32;20196;-53
2021/11/17 05:46:35;;;;;;;29.13;17.60;;;;;;;;;;4462319;32;20319;-54
2021/11/17 05:49:19;;;;;;;38.43;20.97;;;;;;;;;;4461027;32;20701;-54
2021/11/17 05:51:49;;;;;;;44.33;24.33;;;;;;;;;;4462120;32;20708;-54
2021/11/17 05:54:24;;;;;;;50.13;24.60;;;;;;;;;;4460796;32;20239;-55
2021/11/17 05:57:11;;;;;;;47.30;25.70;;;;;;;;;;4461002;32;20334;-53
2021/11/17 06:00:19;;;;;;;49.33;26.50;;;;;;;;;;4460992;32;20407;-54
2021/11/17 06:03:06;;;;;;;55.97;28.30;;;;;;;;;;4461319;32;20391;-54
2021/11/17 06:05:31;;;;;;;63.87;33.60;;;;;;;;;;4462215;32;20325;-54
2021/11/17 06:07:57;;;;;;;76.30;36.57;;;;;;;;;;4462342;32;20645;-55
2021/11/17 06:10:44;;;;;;;71.87;35.33;;;;;;;;;;4463948;32;20300;-53
2021/11/17 06:13:13;;;;;;;58.17;31.40;;;;;;;;;;4463722;32;20218;-54
2021/11/17 06:15:41;;;;;;;59.03;28.50;;;;;;;;;;4463737;32;20226;-53
2021/11/17 06:18:10;;;;;;;48.27;28.17;;;;;;;;;;4463333;32;20216;-54
2021/11/17 06:20:37;;;;;;;46.03;26.70;;;;;;;;;;4463708;32;20584;-54
2021/11/17 06:23:11;;;;;;;58.10;36.67;;;;;;;;;;4463401;32;20245;-54
2021/11/17 06:25:41;;;;;;;65.63;36.67;;;;;;;;;;4463210;32;20196;-54
2021/11/17 06:28:08;;;;;;;50.83;28.57;;;;;;;;;;4463679;32;20609;-54
2021/11/17 06:30:40;;;;;;;43.87;26.10;;;;;;;;;;4463470;32;20200;-54
2021/11/17 06:33:08;;;;;;;62.37;31.00;;;;;;;;;;4463289;32;20208;-53
2021/11/17 06:35:35;;;;;;;67.23;38.57;;;;;;;;;;4463613;32;20208;-54
2021/11/17 06:38:02;;;;;;;55.57;33.00;;;;;;;;;;4463231;32;20266;-55
2021/11/17 06:40:29;;;;;;;60.83;35.93;;;;;;;;;;4463745;32;20681;-54
2021/11/17 06:42:57;;;;;;;64.43;37.30;;;;;;;;;;4462198;32;20637;-55
2021/11/17 06:45:31;;;;;;;73.27;40.77;;;;;;;;;;4447713;32;20224;-54
2021/11/17 06:47:56;;;;;;;69.57;39.77;;;;;;;;;;4447561;32;20563;-54
2021/11/17 06:50:22;;;;;;;59.57;37.40;;;;;;;;;;4446445;32;20307;-55
2021/11/17 06:52:48;;;;;;;70.23;36.93;;;;;;;;;;4447860;32;20296;-54
2021/11/17 06:55:14;;;;;;;80.93;37.30;;;;;;;;;;4448047;32;20279;-54
2021/11/17 06:57:40;;;;;;;61.13;35.43;;;;;;;;;;4446258;32;20221;-54
2021/11/17 07:00:09;;;;;;;52.00;33.50;;;;;;;;;;4446617;32;20317;-55
2021/11/17 07:02:35;;;;;;;67.83;32.70;;;;;;;;;;4454609;32;20936;-54
2021/11/17 07:05:00;;;;;;;52.70;32.33;;;;;;;;;;4462171;32;20382;-57
2021/11/17 07:07:25;;;;;;;72.47;39.73;;;;;;;;;;4464003;32;20288;-54
2021/11/17 07:09:51;;;;;;;94.73;43.53;;;;;;;;;;4464799;32;20311;-54
2021/11/17 07:12:17;;;;;;;81.57;41.87;;;;;;;;;;4463082;32;20254;-54
2021/11/17 07:14:43;;;;;;;80.50;42.03;;;;;;;;;;4462010;32;20354;-54
2021/11/17 07:17:09;;;;;;;81.27;43.77;;;;;;;;;;4463709;32;20220;-54
2021/11/17 07:19:35;;;;;;;66.40;40.63;;;;;;;;;;4465746;32;20275;-55
2021/11/17 07:22:03;;;;;;;72.90;38.03;;;;;;;;;;4466104;32;20216;-54
2021/11/17 07:24:30;;;;;;;70.07;38.33;;;;;;;;;;4465305;32;20656;-54
2021/11/17 07:26:56;;;;;;;63.17;37.43;;;;;;;;;;4465838;32;20224;-54
2021/11/17 07:29:23;;;;;;;88.67;43.67;;;;;;;;;;4465505;32;20286;-56
2021/11/17 07:31:48;;;;;;;78.27;43.87;;;;;;;;;;4465595;32;20272;-54
2021/11/17 07:34:15;;;;;;;87.63;43.07;;;;;;;;;;4465722;32;20632;-54
2021/11/17 07:36:42;;;;;;;72.57;40.47;;;;;;;;;;4465908;32;20224;-54
2021/11/17 07:39:14;;;;;;;79.47;42.10;;;;;;;;;;4465113;32;20576;-55
2021/11/17 07:41:47;;;;;;;63.70;37.30;;;;;;;;;;4449895;32;20284;-54
2021/11/17 07:44:16;;;;;;;67.40;41.60;;;;;;;;;;4448749;32;20244;-54
2021/11/17 07:46:44;;;;;;;72.47;38.03;;;;;;;;;;4449783;32;20667;-54
2021/11/17 07:49:10;;;;;;;73.43;37.33;;;;;;;;;;4450191;32;20231;-54
2021/11/17 07:51:36;;;;;;;60.43;35.10;;;;;;;;;;4449516;32;20619;-54
2021/11/17 07:54:02;;;;;;;56.17;32.30;;;;;;;;;;4449451;32;20375;-56
2021/11/17 07:56:27;;;;;;;60.93;34.00;;;;;;;;;;4448405;32;20232;-54
2021/11/17 07:58:53;;;;;;;67.60;33.50;;;;;;;;;;4459457;32;20588;-56
2021/11/17 08:01:19;;;;;;;68.40;34.73;;;;;;;;;;4464676;32;20255;-54
2021/11/17 08:03:46;;;;;;;54.83;32.97;;;;;;;;;;4464971;32;20216;-54
2021/11/17 08:06:15;;;;;;;60.30;35.03;;;;;;;;;;4464498;32;20369;-54
2021/11/17 08:08:41;;;;;;;62.47;32.10;;;;;;;;;;4464907;32;20204;-54
2021/11/17 08:11:10;;;;;;;58.40;29.90;;;;;;;;;;4464725;32;20569;-54
2021/11/17 08:13:37;;;;;;;50.40;27.67;;;;;;;;;;4464547;32;20291;-54
2021/11/17 08:16:04;;;;;;;48.63;28.97;;;;;;;;;;4463732;32;20292;-54
2021/11/17 08:18:30;;;;;;;43.47;24.30;;;;;;;;;;4464437;32;20196;-54
2021/11/17 08:20:56;;;;;;;37.80;23.63;;;;;;;;;;4464702;32;20307;-54
2021/11/17 08:23:22;;;;;;;39.17;23.90;;;;;;;;;;4464590;32;20311;-54
2021/11/17 08:25:48;;;;;;;41.43;26.00;;;;;;;;;;4451703;32;20283;-54
2021/11/17 08:28:14;;;;;;;46.80;28.37;;;;;;;;;;4448946;32;20234;-54
2021/11/17 08:30:40;;;;;;;56.03;35.00;;;;;;;;;;4449048;32;20228;-54
2021/11/17 08:33:07;;;;;;;65.57;39.10;;;;;;;;;;4448544;32;20243;-54
2021/11/17 08:35:35;;;;;;;63.03;36.77;;;;;;;;;;4448955;32;20219;-55
2021/11/17 08:38:01;;;;;;;52.07;30.77;;;;;;;;;;4449173;32;20633;-54
2021/11/17 08:40:32;;;;;;;43.80;27.93;;;;;;;;;;4449423;32;20399;-55
2021/11/17 08:42:58;;;;;;;49.17;31.60;;;;;;;;;;4449534;32;20216;-54
2021/11/17 08:45:26;;;;;;;56.03;34.97;;;;;;;;;;4447890;32;20399;-55
2021/11/17 08:47:52;;;;;;;47.93;28.77;;;;;;;;;;4448701;32;20342;-54
2021/11/17 08:50:21;;;;;;;38.80;26.70;;;;;;;;;;4448862;32;20267;-54
2021/11/17 08:52:48;;;;;;;36.40;22.43;;;;;;;;;;4449394;32;20264;-54
2021/11/17 08:55:14;;;;;;;43.87;24.03;;;;;;;;;;4459512;32;20209;-54
2021/11/17 08:57:42;;;;;;;31.63;19.90;;;;;;;;;;4464565;32;20251;-54
2021/11/17 09:00:11;;;;;;;25.73;17.47;;;;;;;;;;4464400;32;20564;-54
2021/11/17 09:02:41;;;;;;;38.50;20.27;;;;;;;;;;4463776;32;20266;-55
2021/11/17 09:05:14;;;;;;;24.37;15.30;;;;;;;;;;4464325;32;20543;-54
2021/11/17 09:07:40;;;;;;;23.80;13.53;;;;;;;;;;4462507;32;20228;-55
2021/11/17 09:10:08;;;;;;;29.47;18.13;;;;;;;;;;4463904;32;20286;-55
2021/11/17 09:12:34;;;;;;;42.90;18.80;;;;;;;;;;4463939;32;20299;-56
2021/11/17 09:15:00;;;;;;;24.33;17.07;;;;;;;;;;4464273;32;20317;-55
2021/11/17 09:17:25;;;;;;;22.53;17.27;;;;;;;;;;4463474;32;20220;-54
2021/11/17 09:19:51;;;;;;;27.07;16.07;;;;;;;;;;4464365;32;20590;-55
2021/11/17 09:22:16;;;;;;;33.77;18.23;;;;;;;;;;4463389;32;20235;-55
2021/11/17 09:24:42;;;;;;;21.60;12.17;;;;;;;;;;4463880;32;20271;-54
2021/11/17 09:27:08;;;;;;;19.03;13.37;;;;;;;;;;4463441;32;20224;-54
2021/11/17 09:29:34;;;;;;;20.33;13.47;;;;;;;;;;4463880;32;20297;-53
2021/11/17 09:32:00;;;;;;;25.13;15.87;;;;;;;;;;4462543;32;20560;-55
2021/11/17 09:34:26;;;;;;;16.47;11.93;;;;;;;;;;4463626;32;20339;-55
2021/11/17 09:36:51;;;;;;;21.53;10.63;;;;;;;;;;4463814;32;20315;-54
2021/11/17 09:39:17;;;;;;;23.63;12.87;;;;;;;;;;4463758;32;20279;-54
2021/11/17 09:41:49;;;;;;;21.37;11.90;;;;;;;;;;4463897;32;20628;-54
2021/11/17 09:44:32;;;;;;;17.33;11.37;;;;;;;;;;4463922;32;20200;-55
2021/11/17 09:47:00;;;;;;;15.83;10.47;;;;;;;;;;4462434;32;20217;-54
2021/11/17 09:49:44;;;;;;;22.07;11.23;;;;;;;;;;4463647;32;20199;-55
2021/11/17 09:52:33;;;;;;;15.87;10.90;;;;;;;;;;4463809;32;20216;-55
2021/11/17 09:55:45;;;;;;;21.67;11.67;;;;;;;;;;4463883;32;20211;-54
2021/11/17 09:58:32;;;;;;;16.53;10.10;;;;;;;;;;4463449;32;20228;-54
2021/11/17 10:01:10;;;;;;;16.90;10.07;;;;;;;;;;4463228;32;20248;-55
2021/11/17 10:03:38;;;;;;;14.90;10.17;;;;;;;;;;4463513;32;20215;-54
2021/11/17 10:11:48;;;;;;;26.50;14.37;;;;;;;;;;4463310;32;20303;-53
2021/11/17 10:14:22;;;;;;;25.13;14.10;;;;;;;;;;4463430;32;20235;-54
2021/11/17 10:16:47;;;;;;;18.00;11.53;;;;;;;;;;4463605;32;20568;-53
2021/11/17 10:19:14;;;;;;;21.17;11.83;;;;;;;;;;4463868;32;20310;-56
2021/11/17 10:21:40;;;;;;;25.47;10.57;;;;;;;;;;4463137;32;20270;-54
2021/11/17 10:24:18;;;;;;;19.33;11.87;;;;;;;;;;4463414;32;20310;-54
2021/11/17 10:26:50;;;;;;;16.40;11.20;;;;;;;;;;4462382;32;20244;-54
2021/11/17 10:29:33;;;;;;;21.73;11.10;;;;;;;;;;4462096;32;20243;-54
2021/11/17 10:32:04;;;;;;;18.30;12.37;;;;;;;;;;4463288;32;20261;-53
2021/11/17 10:34:47;;;;;;;19.70;12.30;;;;;;;;;;4463655;32;20217;-54
2021/11/17 10:37:31;;;;;;;25.13;11.47;;;;;;;;;;4463239;32;20809;-54
2021/11/17 10:39:59;;;;;;;25.17;16.13;;;;;;;;;;4456686;32;20581;-53
2021/11/17 10:42:30;;;;;;;18.80;12.57;;;;;;;;;;4450567;32;20240;-54
2021/11/17 10:45:04;;;;;;;21.77;15.70;;;;;;;;;;4450599;32;20261;-55
2021/11/17 10:47:29;;;;;;;29.03;16.37;;;;;;;;;;4458557;32;20311;-55
2021/11/17 10:50:04;;;;;;;39.80;20.47;;;;;;;;;;4464886;32;20417;-54
2021/11/17 10:52:29;;;;;;;20.03;14.03;;;;;;;;;;4465406;32;20269;-55
2021/11/17 10:54:57;;;;;;;20.77;14.20;;;;;;;;;;4466219;32;20291;-53
2021/11/17 10:57:26;;;;;;;26.17;12.93;;;;;;;;;;4465566;32;20243;-54
2021/11/17 10:59:56;;;;;;;21.83;13.87;;;;;;;;;;4465794;32;20291;-54
2021/11/17 11:02:24;;;;;;;21.07;12.00;;;;;;;;;;4464181;32;20327;-54
2021/11/17 11:05:16;;;;;;;30.00;17.73;;;;;;;;;;4464392;32;20299;-54
2021/11/17 11:08:07;;;;;;;128.10;62.07;;;;;;;;;;4465406;32;20428;-55
2021/11/17 11:11:03;;;;;;;28.03;15.93;;;;;;;;;;4464968;32;20260;-54
2021/11/17 11:13:39;;;;;;;24.33;14.77;;;;;;;;;;4451244;32;20275;-54
2021/11/17 11:16:19;;;;;;;40.13;17.93;;;;;;;;;;4465749;32;20248;-54
2021/11/17 11:19:10;;;;;;;31.40;17.00;;;;;;;;;;4466297;32;20260;-53
2021/11/17 11:21:41;;;;;;;21.77;14.40;;;;;;;;;;4454300;32;20240;-55
2021/11/17 11:24:28;;;;;;;23.53;13.73;;;;;;;;;;4465076;32;21136;-54
2021/11/17 11:26:59;;;;;;;31.37;15.90;;;;;;;;;;4450175;32;20619;-54
2021/11/17 11:29:30;;;;;;;25.97;15.90;;;;;;;;;;4449520;32;20637;-53
2021/11/17 11:32:12;;;;;;;24.10;14.87;;;;;;;;;;4449903;32;20295;-53
2021/11/17 11:35:06;;;;;;;24.63;15.73;;;;;;;;;;4449918;32;20537;-54
2021/11/17 11:37:32;;;;;;;25.80;15.43;;;;;;;;;;4432187;32;20332;-54
2021/11/17 11:39:57;;;;;;;33.30;17.00;;;;;;;;;;4448741;32;20302;-56
2021/11/17 11:42:41;;;;;;;25.53;14.67;;;;;;;;;;4449769;32;20240;-54
2021/11/17 11:45:09;;;;;;;31.03;17.20;;;;;;;;;;4465637;32;20204;-53
2021/11/17 11:48:03;;;;;;;32.97;18.13;;;;;;;;;;4463868;32;20244;-54
2021/11/17 11:50:32;;;;;;;30.27;18.03;;;;;;;;;;4444133;32;20273;-54
2021/11/17 11:53:03;;;;;;;28.10;18.10;;;;;;;;;;4464994;32;20235;-54
2021/11/17 11:55:56;;;;;;;35.47;22.23;;;;;;;;;;4465239;32;20240;-54
2021/11/17 11:58:23;;;;;;;30.03;17.43;;;;;;;;;;4464908;32;20287;-54
2021/11/17 12:01:16;;;;;;;26.43;15.50;;;;;;;;;;4464920;32;20246;-55
2021/11/17 12:04:07;;;;;;;24.27;14.07;;;;;;;;;;4465126;32;20287;-55
2021/11/17 12:06:42;;;;;;;22.17;13.60;;;;;;;;;;4456914;32;20277;-56
2021/11/17 12:09:28;;;;;;;23.67;16.03;;;;;;;;;;4465295;32;20225;-54
2021/11/17 12:12:02;;;;;;;24.13;15.17;;;;;;;;;;4465159;32;20725;-54
2021/11/17 12:15:11;;;;;;;30.17;17.07;;;;;;;;;;4464624;32;20605;-55
2021/11/17 12:17:37;;;;;;;38.17;20.67;;;;;;;;;;4416088;32;20329;-54
2021/11/17 12:20:29;;;;;;;36.40;17.47;;;;;;;;;;4454177;32;20228;-55
2021/11/17 12:22:57;;;;;;;32.17;19.80;;;;;;;;;;4464564;32;20333;-53
2021/11/17 12:25:30;;;;;;;27.67;15.70;;;;;;;;;;4454252;32;20329;-54
2021/11/17 12:28:00;;;;;;;24.03;13.80;;;;;;;;;;4449146;32;20259;-54
2021/11/17 12:31:06;;;;;;;30.27;16.73;;;;;;;;;;4447542;32;20307;-54
2021/11/17 12:33:56;;;;;;;27.07;15.80;;;;;;;;;;4440045;32;20247;-55
2021/11/17 12:36:29;;;;;;;31.47;17.47;;;;;;;;;;4449038;32;20251;-54
2021/11/17 12:39:08;;;;;;;23.13;15.40;;;;;;;;;;4449461;32;20298;-53
2021/11/17 12:41:36;;;;;;;28.17;15.83;;;;;;;;;;4464503;32;20274;-55
2021/11/17 12:44:20;;;;;;;39.13;20.53;;;;;;;;;;4464743;32;20317;-55
2021/11/17 12:47:00;;;;;;;258.73;92.70;;;;;;;;;;4464159;32;20235;-54
2021/11/17 12:49:39;;;;;;;36.60;19.13;;;;;;;;;;4463928;32;20238;-54
2021/11/17 12:52:42;;;;;;;32.97;19.90;;;;;;;;;;4464311;32;20232;-54
2021/11/17 12:55:10;;;;;;;29.77;19.23;;;;;;;;;;4463580;32;20211;-54
2021/11/17 12:57:46;;;;;;;134.83;53.17;;;;;;;;;;4463921;32;20664;-54
2021/11/17 13:00:12;;;;;;;59.63;27.20;;;;;;;;;;4464196;32;20345;-54
2021/11/17 13:02:46;;;;;;;66.17;31.83;;;;;;;;;;4463524;32;20723;-54
2021/11/17 13:05:26;;;;;;;26.77;17.43;;;;;;;;;;4463843;32;20583;-55
2021/11/17 13:07:58;;;;;;;27.43;16.10;;;;;;;;;;4463628;32;20333;-54
2021/11/17 13:10:44;;;;;;;24.03;16.47;;;;;;;;;;4462815;32;20239;-55
2021/11/17 13:13:35;;;;;;;22.53;14.67;;;;;;;;;;4463984;32;20217;-54
2021/11/17 13:16:06;;;;;;;22.90;14.53;;;;;;;;;;4461810;32;20244;-53
2021/11/17 13:18:48;;;;;;;31.37;18.33;;;;;;;;;;4450692;32;20291;-54
2021/11/17 13:21:27;;;;;;;29.00;18.93;;;;;;;;;;4448120;32;20860;-54
2021/11/17 13:23:55;;;;;;;30.43;16.13;;;;;;;;;;4450338;32;20226;-53
2021/11/17 13:26:43;;;;;;;23.00;16.03;;;;;;;;;;4448199;32;20286;-54
2021/11/17 13:29:42;;;;;;;27.33;15.77;;;;;;;;;;4457746;32;20219;-54
2021/11/17 13:32:08;;;;;;;26.10;16.27;;;;;;;;;;4462688;32;20303;-54
2021/11/17 13:34:39;;;;;;;28.77;18.43;;;;;;;;;;4462253;32;20311;-54
2021/11/17 13:37:35;;;;;;;32.27;18.30;;;;;;;;;;4463884;32;20262;-54
2021/11/17 13:40:11;;;;;;;25.97;17.33;;;;;;;;;;4463627;32;20216;-55
2021/11/17 13:42:38;;;;;;;28.90;17.43;;;;;;;;;;4463963;32;20247;-55
2021/11/17 13:45:20;;;;;;;32.03;18.27;;;;;;;;;;4464017;32;20212;-54
2021/11/17 13:47:46;;;;;;;33.43;18.70;;;;;;;;;;4463343;32;20235;-54
2021/11/17 13:50:15;;;;;;;24.27;17.33;;;;;;;;;;4463449;32;20329;-54
2021/11/17 13:52:43;;;;;;;31.47;18.17;;;;;;;;;;4462518;32;20768;-54
2021/11/17 13:55:12;;;;;;;30.77;19.80;;;;;;;;;;4462339;32;20577;-54
2021/11/17 13:57:41;;;;;;;34.93;21.87;;;;;;;;;;4463431;32;20240;-54
2021/11/17 14:00:09;;;;;;;60.80;33.20;;;;;;;;;;4463457;32;20269;-54
2021/11/17 14:02:36;;;;;;;68.97;39.00;;;;;;;;;;4462039;32;20303;-55
2021/11/17 14:05:02;;;;;;;48.83;27.93;;;;;;;;;;4463470;32;20339;-54
2021/11/17 14:07:28;;;;;;;33.27;20.90;;;;;;;;;;4463710;32;20581;-54
2021/11/17 14:09:53;;;;;;;42.23;23.50;;;;;;;;;;4464085;32;20394;-54
2021/11/17 14:12:20;;;;;;;49.83;25.53;;;;;;;;;;4462958;32;20258;-54
2021/11/17 14:14:46;;;;;;;42.97;24.87;;;;;;;;;;4463546;32;20239;-56
2021/11/17 14:17:12;;;;;;;39.37;22.80;;;;;;;;;;4466649;32;20348;-55
2021/11/17 14:19:39;;;;;;;40.77;22.80;;;;;;;;;;4466771;32;20732;-57
2021/11/17 14:22:04;;;;;;;49.13;22.23;;;;;;;;;;4466721;32;20546;-54
2021/11/17 14:24:30;;;;;;;43.27;24.10;;;;;;;;;;4464750;32;20372;-55
2021/11/17 14:26:56;;;;;;;38.97;23.97;;;;;;;;;;4466448;32;20240;-54
2021/11/17 14:29:32;;;;;;;55.37;27.47;;;;;;;;;;4466200;32;20349;-55
2021/11/17 14:32:02;;;;;;;56.03;29.83;;;;;;;;;;4459509;32;20259;-55
2021/11/17 14:34:29;;;;;;;59.23;31.80;;;;;;;;;;4450826;32;21154;-54
2021/11/17 14:37:06;;;;;;;64.87;34.50;;;;;;;;;;4450809;32;20304;-55
2021/11/17 14:39:34;;;;;;;68.63;37.07;;;;;;;;;;4450948;32;20196;-55
2021/11/17 14:42:00;;;;;;;79.60;43.50;;;;;;;;;;4450496;32;20244;-54
2021/11/17 14:44:26;;;;;;;67.20;38.83;;;;;;;;;;4450691;32;20299;-54
2021/11/17 14:46:52;;;;;;;65.27;36.40;;;;;;;;;;4449172;32;20323;-53
2021/11/17 14:49:18;;;;;;;66.20;34.77;;;;;;;;;;4449339;32;20686;-56
2021/11/17 14:51:44;;;;;;;70.00;38.13;;;;;;;;;;4448505;32;20588;-55
2021/11/17 14:54:10;;;;;;;64.37;37.53;;;;;;;;;;4447654;32;20337;-54
2021/11/17 14:56:38;;;;;;;80.47;41.43;;;;;;;;;;4448170;32;20251;-54
2021/11/17 14:59:04;;;;;;;87.87;45.20;;;;;;;;;;4459478;32;20247;-55
2021/11/17 15:01:34;;;;;;;84.97;46.83;;;;;;;;;;4465802;32;20315;-53
2021/11/17 15:04:02;;;;;;;89.63;44.40;;;;;;;;;;4465831;32;20235;-54
2021/11/17 15:06:29;;;;;;;80.47;44.33;;;;;;;;;;4465744;32;20251;-54
2021/11/17 15:08:55;;;;;;;84.23;48.97;;;;;;;;;;4465871;32;20620;-54
2021/11/17 15:11:22;;;;;;;85.07;47.17;;;;;;;;;;4462795;32;20240;-55
2021/11/17 15:13:48;;;;;;;86.57;47.27;;;;;;;;;;4462054;32;20247;-54
2021/11/17 15:16:13;;;;;;;80.03;47.50;;;;;;;;;;4461108;32;20327;-54
2021/11/17 15:18:43;;;;;;;80.23;46.47;;;;;;;;;;4462195;32;20746;-55
2021/11/17 15:21:10;;;;;;;103.57;56.53;;;;;;;;;;4462165;32;20231;-55
2021/11/17 15:23:35;;;;;;;88.07;55.40;;;;;;;;;;4461581;32;20296;-54
2021/11/17 15:26:03;;;;;;;98.70;55.60;;;;;;;;;;4460907;32;20232;-54
2021/11/17 15:28:38;;;;;;;102.20;55.87;;;;;;;;;;4465469;32;20282;-53
2021/11/17 15:31:11;;;;;;;113.23;63.97;;;;;;;;;;4464863;32;20269;-55
2021/11/17 15:33:37;;;;;;;114.13;64.87;;;;;;;;;;4462365;32;20459;-54
2021/11/17 15:36:06;;;;;;;159.43;83.70;;;;;;;;;;4462835;32;20248;-55
2021/11/17 15:38:32;;;;;;;401.20;188.00;;;;;;;;;;4464799;32;20306;-54
2021/11/17 15:41:01;;;;;;;296.87;130.50;;;;;;;;;;4465028;32;20240;-54
2021/11/17 15:43:27;;;;;;;195.93;90.63;;;;;;;;;;4465102;32;20232;-55
2021/11/17 15:45:53;;;;;;;153.57;76.30;;;;;;;;;;4465321;32;20321;-55
2021/11/17 15:48:21;;;;;;;144.97;73.13;;;;;;;;;;4465014;32;20701;-55
2021/11/17 15:51:00;;;;;;;143.33;74.73;;;;;;;;;;4465307;32;20204;-55
2021/11/17 15:53:26;;;;;;;151.80;68.53;;;;;;;;;;4465252;32;20244;-54
2021/11/17 15:55:53;;;;;;;100.43;53.63;;;;;;;;;;4465253;32;21092;-55
2021/11/17 15:58:19;;;;;;;78.27;46.57;;;;;;;;;;4464903;32;20246;-55
2021/11/17 16:00:46;;;;;;;81.37;45.93;;;;;;;;;;4465099;32;20212;-55
2021/11/17 16:03:14;;;;;;;86.53;49.50;;;;;;;;;;4465076;32;20281;-55
2021/11/17 16:05:40;;;;;;;104.63;61.47;;;;;;;;;;4464809;32;20302;-56
2021/11/17 16:08:05;;;;;;;132.83;65.57;;;;;;;;;;4464886;32;20216;-55
2021/11/17 16:10:31;;;;;;;159.57;75.53;;;;;;;;;;4464886;32;20313;-54
2021/11/17 16:12:56;;;;;;;139.17;71.50;;;;;;;;;;4464604;32;20692;-55
2021/11/17 16:15:22;;;;;;;137.60;71.17;;;;;;;;;;4465028;32;20303;-57
2021/11/17 16:17:48;;;;;;;136.93;71.80;;;;;;;;;;4465194;32;20629;-55
2021/11/17 16:20:24;;;;;;;154.27;73.60;;;;;;;;;;4464638;32;20639;-55
2021/11/17 16:25:33;;;;;;;139.37;71.97;;;;;;;;;;4464392;32;20235;-55
2021/11/17 16:25:44;;;;;;;150.20;78.00;;;;;;;;;;4452146;32;20264;-54
2021/11/17 16:28:18;;;;;;;150.33;86.17;;;;;;;;;;4447820;32;20244;-55
2021/11/17 16:30:44;;;;;;;191.47;99.37;;;;;;;;;;4448780;32;20227;-55
2021/11/17 16:33:12;;;;;;;218.43;113.00;;;;;;;;;;4448635;32;20217;-55
2021/11/17 16:35:38;;;;;;;183.13;94.77;;;;;;;;;;4448766;32;20243;-55
2021/11/17 16:38:06;;;;;;;154.47;85.17;;;;;;;;;;4447738;32;20644;-54
2021/11/17 16:40:33;;;;;;;141.63;74.93;;;;;;;;;;4446940;32;20365;-56
2021/11/17 16:43:00;;;;;;;136.57;77.23;;;;;;;;;;4455971;32;20305;-55
2021/11/17 16:45:26;;;;;;;134.43;76.47;;;;;;;;;;4464325;32;20275;-56
2021/11/17 16:47:52;;;;;;;116.10;69.33;;;;;;;;;;4464138;32;20326;-54
2021/11/17 16:50:20;;;;;;;127.93;63.73;;;;;;;;;;4463284;32;20328;-56
2021/11/17 16:52:47;;;;;;;111.13;62.47;;;;;;;;;;4463672;32;20282;-55
2021/11/17 16:55:20;;;;;;;102.30;57.03;;;;;;;;;;4463823;32;20242;-55
2021/11/17 16:57:50;;;;;;;100.13;56.10;;;;;;;;;;4464120;32;20572;-55
2021/11/17 17:00:23;;;;;;;99.40;54.40;;;;;;;;;;4463778;32;20204;-55
2021/11/17 17:02:49;;;;;;;93.17;54.87;;;;;;;;;;4462737;32;20294;-53
2021/11/17 17:05:16;;;;;;;106.97;55.87;;;;;;;;;;4462097;32;20343;-56
2021/11/17 17:07:42;;;;;;;107.53;59.40;;;;;;;;;;4462145;32;20889;-54
2021/11/17 17:10:10;;;;;;;116.17;62.90;;;;;;;;;;4462495;32;20223;-54
2021/11/17 17:12:37;;;;;;;114.43;62.53;;;;;;;;;;4463872;32;20295;-55
2021/11/17 17:15:05;;;;;;;133.87;70.87;;;;;;;;;;4463829;32;20335;-55
2021/11/17 17:17:31;;;;;;;142.83;72.90;;;;;;;;;;4463518;32;20228;-54
2021/11/17 17:19:58;;;;;;;146.60;73.50;;;;;;;;;;4461997;32;20334;-62
2021/11/17 17:22:24;;;;;;;142.20;79.67;;;;;;;;;;4462749;32;20568;-54
2021/11/17 17:24:51;;;;;;;162.80;86.13;;;;;;;;;;4455979;32;20343;-54
2021/11/17 17:27:17;;;;;;;164.73;89.20;;;;;;;;;;4447333;32;20241;-54